Time;durP1;ratioP1;P1;durP2;ratioP2;P2;SDS_P1;SDS_P2;PMS_P1;PMS_P2;Temp;Humidity;BMP_temperature;BMP_pressure;BME280_temperature;BME280_humidity;BME280_pressure;Samples;Min_cycle;Max_cycle;Signal;HPM_P1;HPM_P2
2021/12/31 00:00:47;;;;;;;;;49.67;40.67;;;;;10.76;93.30;100121.03;5075694;28;46032;-68
2021/12/31 00:03:16;;;;;;;;;49.00;41.33;;;;;10.72;93.45;100115.88;5076140;28;45178;-68
2021/12/31 00:05:42;;;;;;;;;45.67;38.00;;;;;10.69;93.70;100116.81;5075496;28;45424;-68
2021/12/31 00:08:08;;;;;;;;;45.00;36.67;;;;;10.67;93.54;100115.13;5074933;28;46199;-68
2021/12/31 00:10:33;;;;;;;;;45.33;36.67;;;;;10.63;93.39;100122.22;5075349;28;45443;-68
2021/12/31 00:12:59;;;;;;;;;49.00;39.33;;;;;10.59;93.31;100120.56;5075935;28;45329;-68
2021/12/31 00:15:24;;;;;;;;;46.67;37.33;;;;;10.56;93.10;100120.63;5075515;28;45573;-68
2021/12/31 00:17:50;;;;;;;;;43.33;38.00;;;;;10.53;92.95;100122.50;5075576;28;45380;-68
2021/12/31 00:20:19;;;;;;;;;41.00;36.00;;;;;10.50;92.31;100126.06;5075044;28;45446;-68
2021/12/31 00:23:09;;;;;;;;;43.00;35.67;;;;;10.46;92.64;100125.28;5075227;28;45356;-68
2021/12/31 00:25:37;;;;;;;;;42.33;35.00;;;;;10.43;92.70;100133.25;5075137;28;45374;-68
2021/12/31 00:28:04;;;;;;;;;40.67;35.33;;;;;10.40;92.54;100129.81;5075259;28;46266;-68
2021/12/31 00:30:30;;;;;;;;;41.33;36.33;;;;;10.37;92.42;100128.13;5075403;28;45322;-68
2021/12/31 00:32:55;;;;;;;;;39.00;34.67;;;;;10.33;92.46;100123.84;5075641;28;45332;-68
2021/12/31 00:35:21;;;;;;;;;40.33;32.67;;;;;10.31;92.29;100130.91;5091040;27;45548;-68
2021/12/31 00:37:47;;;;;;;;;42.33;36.67;;;;;10.29;92.63;100126.56;5074189;28;45412;-68
2021/12/31 00:40:15;;;;;;;;;47.33;39.00;;;;;10.27;92.81;100125.72;5075233;28;45447;-68
2021/12/31 00:42:41;;;;;;;;;48.67;40.00;;;;;10.24;92.73;100133.69;5074790;28;45371;-68
2021/12/31 00:45:09;;;;;;;;;49.00;39.00;;;;;10.20;93.08;100124.16;5073663;28;45515;-68
2021/12/31 00:47:34;;;;;;;;;41.00;35.67;;;;;10.17;93.12;100127.69;5074925;28;45518;-68
2021/12/31 00:50:00;;;;;;;;;46.67;38.33;;;;;10.13;93.60;100124.25;5074805;28;45283;-68
2021/12/31 00:52:25;;;;;;;;;34.67;32.33;;;;;10.11;93.80;100118.13;5074608;28;45282;-68
2021/12/31 00:54:50;;;;;;;;;49.00;40.67;;;;;10.07;94.07;100119.09;5075219;28;45374;-68
2021/12/31 00:57:16;;;;;;;;;46.33;38.00;;;;;10.05;94.60;100120.91;5074686;28;45453;-68
2021/12/31 00:59:41;;;;;;;;;49.33;40.33;;;;;10.03;94.51;100116.59;5075020;28;45521;-68
2021/12/31 01:02:07;;;;;;;;;40.00;36.33;;;;;10.02;94.65;100121.00;5074930;28;45501;-68
2021/12/31 01:04:34;;;;;;;;;49.00;36.00;;;;;10.00;94.70;100114.88;5075185;27;45562;-68
2021/12/31 01:07:01;;;;;;;;;48.00;37.67;;;;;9.99;95.00;100128.97;5074362;28;46634;-68
2021/12/31 01:09:31;;;;;;;;;42.33;36.00;;;;;9.98;94.75;100127.22;5074819;28;45462;-68
2021/12/31 01:11:57;;;;;;;;;37.33;34.33;;;;;9.96;94.75;100125.50;5074962;28;45343;-68
2021/12/31 01:14:31;;;;;;;;;40.67;35.33;;;;;9.93;94.88;100126.44;5074915;28;45441;-69
2021/12/31 01:17:00;;;;;;;;;36.33;34.33;;;;;9.90;94.75;100130.91;5074657;27;45467;-68
2021/12/31 01:21:52;;;;;;;;;35.00;33.33;;;;;9.86;94.59;100132.75;5074545;28;45362;-69
2021/12/31 01:24:19;;;;;;;;;42.67;35.33;;;;;9.82;94.65;100131.09;5074766;28;45399;-68
2021/12/31 01:26:45;;;;;;;;;42.00;34.67;;;;;9.80;94.52;100133.75;5074587;28;46153;-68
2021/12/31 01:29:11;;;;;;;;;38.67;34.67;;;;;9.77;94.62;100136.44;5074630;28;45431;-68
2021/12/31 01:31:36;;;;;;;;;40.67;35.67;;;;;9.77;94.59;100140.84;5074468;28;45432;-68
2021/12/31 01:34:01;;;;;;;;;36.67;34.00;;;;;9.74;95.08;100139.13;5074590;28;45561;-68
2021/12/31 01:36:27;;;;;;;;;36.33;30.33;;;;;9.73;95.65;100136.53;5073868;28;46652;-68
2021/12/31 01:38:53;;;;;;;;;34.33;32.33;;;;;9.70;95.99;100144.50;5074538;28;45706;-68
2021/12/31 01:41:20;;;;;;;;;31.33;28.00;;;;;9.70;96.16;100140.09;5074819;28;45242;-68
2021/12/31 01:43:45;;;;;;;;;36.00;33.33;;;;;9.70;96.26;100149.78;5074466;28;45608;-68
2021/12/31 01:46:12;;;;;;;;;40.33;34.00;;;;;9.67;96.42;100147.19;5074175;28;45997;-68
2021/12/31 01:48:59;;;;;;;;;39.00;35.00;;;;;9.67;96.37;100153.34;5074505;28;45494;-68
2021/12/31 01:51:25;;;;;;;;;39.67;35.00;;;;;9.66;96.53;100150.72;5074267;27;45163;-68
2021/12/31 01:53:51;;;;;;;;;37.33;33.33;;;;;9.65;96.59;100152.50;5074543;28;45175;-68
2021/12/31 01:56:18;;;;;;;;;40.00;33.67;;;;;9.65;96.51;100155.13;5076896;28;45454;-68
2021/12/31 01:58:49;;;;;;;;;42.33;35.67;;;;;9.64;96.64;100147.25;5077950;28;45391;-68
2021/12/31 02:01:14;;;;;;;;;38.67;34.00;;;;;9.64;96.58;100157.78;5077290;28;45367;-67
2021/12/31 02:03:40;;;;;;;;;42.33;35.00;;;;;9.62;96.27;100160.44;5077591;28;45383;-68
2021/12/31 02:06:05;;;;;;;;;31.67;31.00;;;;;9.62;96.40;100162.19;5077271;28;45406;-69
2021/12/31 02:08:32;;;;;;;;;40.00;34.67;;;;;9.61;96.13;100156.06;5076507;28;45397;-68
2021/12/31 02:10:58;;;;;;;;;36.33;33.00;;;;;9.61;95.93;100147.31;5077626;28;45406;-68
2021/12/31 02:13:24;;;;;;;;;39.67;34.33;;;;;9.61;96.04;100147.31;5077608;28;45484;-68
2021/12/31 02:15:51;;;;;;;;;31.33;29.00;;;;;9.58;95.98;100150.00;5077380;28;46437;-68
2021/12/31 02:18:17;;;;;;;;;32.67;28.67;;;;;9.56;96.16;100155.28;5077177;28;45285;-68
2021/12/31 02:20:46;;;;;;;;;32.00;30.33;;;;;9.55;95.93;100155.34;5077615;28;45310;-68
2021/12/31 02:23:23;;;;;;;;;37.00;28.33;;;;;9.53;95.95;100152.75;5077258;28;45562;-68
2021/12/31 02:25:49;;;;;;;;;33.33;28.67;;;;;9.51;95.85;100153.66;5077111;28;46141;-68
2021/12/31 02:28:15;;;;;;;;;29.67;25.00;;;;;9.51;95.94;100158.91;5077197;28;45830;-68
2021/12/31 02:30:41;;;;;;;;;31.67;26.67;;;;;9.50;95.67;100165.09;5077324;28;45437;-68
2021/12/31 02:33:06;;;;;;;;;32.67;27.00;;;;;9.50;95.64;100159.81;5077291;28;45503;-68
2021/12/31 02:35:33;;;;;;;;;32.00;29.00;;;;;9.47;95.45;100162.50;5077172;28;46015;-68
2021/12/31 02:37:59;;;;;;;;;38.33;33.33;;;;;9.45;95.24;100155.50;5076750;28;45289;-68
2021/12/31 02:40:28;;;;;;;;;36.00;32.33;;;;;9.44;95.25;100153.75;5077494;28;45396;-68
2021/12/31 02:42:53;;;;;;;;;27.33;27.00;;;;;9.42;95.12;100149.41;5076920;28;45540;-68
2021/12/31 02:45:21;;;;;;;;;27.00;26.00;;;;;9.38;95.11;100148.59;5076960;28;45451;-68
2021/12/31 02:47:46;;;;;;;;;37.00;29.33;;;;;9.34;95.23;100144.31;5076948;27;45790;-68
2021/12/31 02:50:15;;;;;;;;;31.33;29.00;;;;;9.32;95.15;100153.13;5077446;28;45349;-67
2021/12/31 02:52:41;;;;;;;;;30.67;28.00;;;;;9.27;95.20;100150.56;5076302;28;45401;-68
2021/12/31 02:55:10;;;;;;;;;31.33;29.67;;;;;9.25;95.21;100159.38;5076929;28;45473;-68
2021/12/31 02:57:38;;;;;;;;;26.33;23.67;;;;;9.22;95.04;100154.19;5076608;28;45387;-68
2021/12/31 03:00:05;;;;;;;;;27.67;26.00;;;;;9.19;94.48;100157.75;5076885;28;45314;-68
2021/12/31 03:02:32;;;;;;;;;27.33;25.67;;;;;9.16;94.78;100156.94;5076519;27;45557;-68
2021/12/31 03:05:00;;;;;;;;;32.00;29.00;;;;;9.15;94.47;100157.84;5076418;28;45581;-68
2021/12/31 03:07:27;;;;;;;;;24.00;24.00;;;;;9.11;94.61;100157.00;5075813;28;45470;-68
2021/12/31 03:09:54;;;;;;;;;27.33;26.67;;;;;9.09;94.46;100154.41;5076744;28;45410;-68
2021/12/31 03:12:20;;;;;;;;;25.33;25.33;;;;;9.08;94.07;100157.06;5076441;28;45364;-69
2021/12/31 03:14:48;;;;;;;;;37.67;29.33;;;;;9.04;94.04;100153.63;5076636;28;45558;-67
2021/12/31 03:17:14;;;;;;;;;32.50;28.00;;;;;9.02;94.01;100152.78;5076680;28;45411;-67
2021/12/31 03:19:42;;;;;;;;;30.00;23.00;;;;;8.99;93.64;100151.97;5076626;28;45463;-68
2021/12/31 03:22:08;;;;;;;;;26.00;23.00;;;;;8.94;93.92;100151.19;5076012;28;45486;-68
2021/12/31 03:24:34;;;;;;;;;26.00;23.33;;;;;8.90;94.19;100141.59;5076186;28;45388;-68
2021/12/31 03:26:59;;;;;;;;;29.67;26.00;;;;;8.87;94.01;100145.16;5075983;27;45317;-68
2021/12/31 03:29:25;;;;;;;;;24.00;22.00;;;;;8.87;94.03;100152.19;5076851;28;45389;-68
2021/12/31 03:31:50;;;;;;;;;22.25;20.00;;;;;8.84;94.02;100146.97;5076195;28;45593;-68
2021/12/31 03:34:16;;;;;;;;;28.33;26.00;;;;;8.82;94.05;100148.75;5076126;27;45852;-68
2021/12/31 03:36:44;;;;;;;;;27.00;24.67;;;;;8.79;93.80;100148.81;5075677;28;45384;-68
2021/12/31 03:39:10;;;;;;;;;27.33;26.00;;;;;8.77;94.02;100142.69;5076557;28;45376;-68
2021/12/31 03:41:36;;;;;;;;;25.25;22.50;;;;;8.74;93.78;100148.88;5075898;28;45353;-68
2021/12/31 03:44:03;;;;;;;;;24.75;23.50;;;;;8.73;94.06;100144.50;5076188;28;45307;-68
2021/12/31 03:46:29;;;;;;;;;23.00;22.67;;;;;8.70;93.90;100145.44;5075786;28;45528;-68
2021/12/31 03:48:54;;;;;;;;;21.00;20.33;;;;;8.69;94.19;100145.47;5076252;28;45376;-68
2021/12/31 03:51:20;;;;;;;;;21.25;20.00;;;;;8.67;94.06;100150.75;5075704;28;45546;-68
2021/12/31 03:53:45;;;;;;;;;20.75;19.50;;;;;8.64;94.10;100142.91;5076206;28;45548;-68
2021/12/31 03:56:11;;;;;;;;;23.33;20.00;;;;;8.63;93.90;100151.69;5075958;28;45388;-68
2021/12/31 03:58:36;;;;;;;;;25.67;22.67;;;;;8.60;93.85;100146.47;5076265;28;45341;-68
2021/12/31 04:01:02;;;;;;;;;27.00;23.50;;;;;8.55;93.64;100140.41;5075766;28;45376;-69
2021/12/31 04:03:27;;;;;;;;;18.00;18.00;;;;;8.52;93.74;100136.97;5076195;28;45950;-68
2021/12/31 04:05:53;;;;;;;;;20.50;17.00;;;;;8.49;94.09;100134.41;5075743;28;45349;-69
2021/12/31 04:08:19;;;;;;;;;16.50;16.00;;;;;8.47;94.12;100130.91;5075664;28;45585;-68
2021/12/31 04:10:44;;;;;;;;;22.67;19.33;;;;;8.44;94.16;100137.09;5075355;28;45597;-68
2021/12/31 04:13:10;;;;;;;;;12.33;11.00;;;;;8.43;93.99;100132.72;5075975;28;45478;-68
2021/12/31 04:15:35;;;;;;;;;20.75;17.25;;;;;8.38;94.08;100138.03;5075425;28;45427;-68
2021/12/31 04:18:01;;;;;;;;;18.75;17.75;;;;;8.37;93.82;100136.31;5074951;28;45569;-68
2021/12/31 04:21:01;;;;;;;;;17.00;15.33;;;;;8.34;94.01;100131.13;5075486;28;45466;-68
2021/12/31 04:23:28;;;;;;;;;19.33;19.00;;;;;8.32;93.76;100134.66;5072802;27;46346;-68
2021/12/31 04:25:55;;;;;;;;;19.25;18.75;;;;;8.31;93.91;100138.13;5075526;28;45441;-68
2021/12/31 04:28:21;;;;;;;;;21.25;17.00;;;;;8.29;93.86;100132.91;5075403;28;45451;-68
2021/12/31 04:30:46;;;;;;;;;17.67;17.67;;;;;8.28;93.67;100135.53;5075489;28;45604;-68
2021/12/31 04:33:12;;;;;;;;;17.67;13.67;;;;;8.25;93.48;100135.59;5075484;28;46035;-68
2021/12/31 04:35:37;;;;;;;;;22.00;20.67;;;;;8.23;93.59;100134.72;5075061;28;45493;-68
2021/12/31 04:38:04;;;;;;;;;18.25;14.75;;;;;8.21;93.45;100134.75;5075019;28;45451;-68
2021/12/31 04:40:30;;;;;;;;;19.75;17.75;;;;;8.20;93.78;100138.28;5075383;28;45572;-68
2021/12/31 04:42:55;;;;;;;;;21.75;16.75;;;;;8.19;93.96;100135.69;5074945;28;45356;-67
2021/12/31 04:45:20;;;;;;;;;19.50;17.00;;;;;8.17;93.99;100135.72;5075376;28;45334;-67
2021/12/31 04:47:47;;;;;;;;;14.00;14.00;;;;;8.17;93.72;100135.72;5075199;27;45469;-67
2021/12/31 04:50:13;;;;;;;;;15.00;15.00;;;;;8.17;93.99;100138.34;5075211;28;45479;-67
2021/12/31 04:52:39;;;;;;;;;17.25;13.50;;;;;8.15;94.00;100134.00;5074145;28;45498;-67
2021/12/31 04:55:06;;;;;;;;;17.50;17.50;;;;;8.13;94.06;100134.00;5075124;28;45419;-68
2021/12/31 04:57:31;;;;;;;;;18.50;18.25;;;;;8.12;94.20;100128.78;5074555;28;45423;-67
2021/12/31 04:59:57;;;;;;;;;18.00;16.75;;;;;8.12;94.40;100126.16;5074884;28;45418;-68
2021/12/31 05:02:22;;;;;;;;;18.50;17.25;;;;;8.11;94.07;100127.03;5073505;28;46477;-66
2021/12/31 05:04:48;;;;;;;;;19.50;15.75;;;;;8.09;94.27;100121.81;5074800;28;45484;-66
2021/12/31 05:07:13;;;;;;;;;21.50;18.50;;;;;8.08;94.22;100125.31;5074654;28;45900;-67
2021/12/31 05:09:39;;;;;;;;;18.25;16.25;;;;;8.06;94.08;100119.22;5074805;28;45455;-67
2021/12/31 05:12:05;;;;;;;;;17.50;17.50;;;;;8.05;94.22;100122.72;5074717;28;45440;-67
2021/12/31 05:14:31;;;;;;;;;19.00;18.00;;;;;8.02;94.16;100123.66;5073469;28;45362;-67
2021/12/31 05:16:58;;;;;;;;;17.75;17.50;;;;;8.01;94.21;100119.28;5075013;28;45490;-67
2021/12/31 05:19:24;;;;;;;;;25.00;20.00;;;;;8.00;94.03;100120.19;5074824;28;45499;-67
2021/12/31 05:21:49;;;;;;;;;20.00;18.33;;;;;7.99;94.28;100123.69;5074215;28;46289;-67
2021/12/31 05:24:16;;;;;;;;;14.75;14.75;;;;;7.98;94.11;100113.22;5074684;28;45428;-67
2021/12/31 05:26:42;;;;;;;;;21.75;17.50;;;;;7.99;94.32;100120.19;5075157;28;45483;-67
2021/12/31 05:29:07;;;;;;;;;17.33;16.00;;;;;7.96;94.45;100126.34;5075763;28;45326;-67
2021/12/31 05:31:33;;;;;;;;;24.00;16.50;;;;;7.97;94.40;100127.22;5078103;28;46062;-67
2021/12/31 05:33:58;;;;;;;;;21.75;19.25;;;;;7.96;94.02;100143.88;5078176;28;45380;-67
2021/12/31 05:36:25;;;;;;;;;18.00;17.75;;;;;7.92;93.99;100140.41;5077569;28;45352;-67
2021/12/31 05:38:50;;;;;;;;;17.75;15.75;;;;;7.90;94.03;100138.69;5078402;28;45363;-67
2021/12/31 05:41:16;;;;;;;;;18.25;15.50;;;;;7.88;94.09;100137.84;5076396;28;47346;-67
2021/12/31 05:43:41;;;;;;;;;17.25;16.50;;;;;7.83;93.75;100137.91;5078090;28;45407;-67
2021/12/31 05:46:07;;;;;;;;;17.25;16.00;;;;;7.80;93.92;100134.47;5078029;27;45218;-67
2021/12/31 05:48:32;;;;;;;;;16.00;15.00;;;;;7.74;94.10;100134.53;5078058;28;45331;-67
2021/12/31 05:50:58;;;;;;;;;18.75;15.25;;;;;7.71;94.10;100132.78;5077858;28;45995;-67
2021/12/31 05:53:23;;;;;;;;;12.00;12.00;;;;;7.70;94.56;100136.34;5077772;28;45378;-67
2021/12/31 05:55:49;;;;;;;;;16.00;15.25;;;;;7.68;94.30;100135.47;5078007;28;45420;-67
2021/12/31 05:58:14;;;;;;;;;19.00;15.50;;;;;7.67;95.01;100137.25;5077578;28;45292;-67
2021/12/31 06:00:40;;;;;;;;;18.50;17.50;;;;;7.67;94.76;100136.38;5077303;28;45527;-67
2021/12/31 06:03:05;;;;;;;;;16.00;13.50;;;;;7.67;94.72;100132.00;5077414;28;45456;-67
2021/12/31 06:05:31;;;;;;;;;17.25;15.00;;;;;7.67;94.54;100125.88;5077814;28;45411;-67
2021/12/31 06:07:56;;;;;;;;;22.25;18.75;;;;;7.66;94.32;100124.13;5077426;28;45448;-67
2021/12/31 06:10:23;;;;;;;;;22.50;17.00;;;;;7.63;94.27;100127.66;5077237;28;45568;-67
2021/12/31 06:12:56;;;;;;;;;18.67;17.67;;;;;7.60;94.28;100130.31;5077252;28;45372;-67
2021/12/31 06:15:25;;;;;;;;;20.00;17.67;;;;;7.58;94.14;100145.19;5077513;28;45365;-67
2021/12/31 06:17:51;;;;;;;;;17.33;16.00;;;;;7.55;93.75;100141.75;5077743;28;45476;-67
2021/12/31 06:20:16;;;;;;;;;20.33;17.33;;;;;7.53;93.64;100140.91;5077288;28;46060;-67
2021/12/31 06:22:42;;;;;;;;;24.00;19.67;;;;;7.50;93.56;100133.94;5077060;28;45310;-67
2021/12/31 06:25:08;;;;;;;;;18.67;18.67;;;;;7.47;93.43;100136.59;5077604;27;45307;-68
2021/12/31 06:27:33;;;;;;;;;16.67;16.00;;;;;7.44;93.43;100133.13;5077165;28;45399;-67
2021/12/31 06:29:59;;;;;;;;;24.33;18.33;;;;;7.43;93.62;100140.13;5076949;28;46226;-67
2021/12/31 06:32:24;;;;;;;;;20.33;20.33;;;;;7.43;93.45;100144.50;5077371;28;45401;-68
2021/12/31 06:34:50;;;;;;;;;16.00;16.00;;;;;7.39;93.54;100148.91;5077215;28;45440;-67
2021/12/31 06:37:15;;;;;;;;;21.33;20.33;;;;;7.37;93.56;100144.59;5076957;28;45293;-67
2021/12/31 06:39:41;;;;;;;;;28.67;22.00;;;;;7.34;93.22;100135.88;5076923;28;46598;-67
2021/12/31 06:42:07;;;;;;;;;19.00;18.00;;;;;7.30;93.05;100130.66;5076481;28;45552;-67
2021/12/31 06:44:34;;;;;;;;;16.75;15.50;;;;;7.26;93.45;100127.19;5077011;28;45428;-67
2021/12/31 06:46:59;;;;;;;;;18.00;17.00;;;;;7.25;93.41;100129.84;5076702;28;45294;-67
2021/12/31 06:49:25;;;;;;;;;18.67;18.67;;;;;7.23;93.78;100135.09;5076724;28;46512;-67
2021/12/31 06:51:50;;;;;;;;;14.00;12.67;;;;;7.22;93.86;100137.72;5076530;28;45395;-67
2021/12/31 06:54:16;;;;;;;;;17.50;16.50;;;;;7.22;93.87;100135.09;5077035;28;45611;-67
2021/12/31 06:56:41;;;;;;;;;16.33;16.33;;;;;7.19;93.76;100136.03;5076852;28;45395;-67
2021/12/31 06:59:06;;;;;;;;;18.33;17.67;;;;;7.18;94.04;100144.78;5076101;28;45339;-67
2021/12/31 07:01:32;;;;;;;;;15.75;14.25;;;;;7.18;93.74;100146.53;5076127;28;45325;-68
2021/12/31 07:03:57;;;;;;;;;17.67;16.00;;;;;7.17;93.32;100152.66;5076532;27;45294;-68
2021/12/31 07:06:23;;;;;;;;;15.25;15.25;;;;;7.13;93.73;100138.72;5076042;28;45529;-68
2021/12/31 07:08:49;;;;;;;;;16.67;16.33;;;;;7.12;93.51;100147.47;5075984;28;46574;-67
2021/12/31 07:11:16;;;;;;;;;21.33;17.00;;;;;7.11;93.57;100140.47;5076376;28;45428;-67
2021/12/31 07:13:41;;;;;;;;;16.00;16.00;;;;;7.09;93.50;100154.47;5076400;28;45371;-67
2021/12/31 07:16:07;;;;;;;;;16.33;15.33;;;;;7.07;93.66;100154.47;5076261;28;45459;-68
2021/12/31 07:18:32;;;;;;;;;22.33;15.00;;;;;7.09;93.70;100150.09;5075869;28;45369;-67
2021/12/31 07:20:57;;;;;;;;;16.33;14.33;;;;;7.09;93.88;100151.84;5074916;28;45376;-67
2021/12/31 07:23:23;;;;;;;;;19.00;15.00;;;;;7.12;94.05;100154.44;5076084;27;45412;-66
2021/12/31 07:25:49;;;;;;;;;17.00;16.33;;;;;7.13;94.04;100146.56;5074523;28;45725;-67
2021/12/31 07:28:15;;;;;;;;;19.67;18.00;;;;;7.16;93.69;100148.31;5075954;28;47408;-67
2021/12/31 07:30:42;;;;;;;;;19.33;17.33;;;;;7.15;93.48;100157.91;5075993;28;45175;-67
2021/12/31 07:33:19;;;;;;;;;19.33;17.00;;;;;7.17;93.21;100156.16;5075612;28;45353;-67
2021/12/31 07:35:45;;;;;;;;;20.00;17.00;;;;;7.17;93.58;100156.16;5074803;28;45446;-67
2021/12/31 07:38:19;;;;;;;;;19.25;16.25;;;;;7.18;93.45;100154.41;5077921;27;46666;-68
2021/12/31 07:40:45;;;;;;;;;16.00;12.25;;;;;7.18;93.31;100154.41;5084851;27;45347;-68
2021/12/31 07:43:11;;;;;;;;;20.00;14.33;;;;;7.20;93.31;100164.00;5076157;27;45426;-67
2021/12/31 07:45:37;;;;;;;;;13.50;12.00;;;;;7.20;93.33;100164.00;5075986;28;45312;-67
2021/12/31 07:48:03;;;;;;;;;17.75;15.25;;;;;7.22;93.44;100167.44;5077714;27;45534;-67
2021/12/31 07:50:29;;;;;;;;;17.00;17.00;;;;;7.26;93.52;100163.03;5083918;27;45465;-67
2021/12/31 07:52:55;;;;;;;;;17.00;17.00;;;;;7.28;93.45;100171.78;5073833;28;45375;-68
2021/12/31 07:55:20;;;;;;;;;20.33;15.67;;;;;7.28;92.93;100172.66;5075741;28;45525;-68
2021/12/31 07:57:46;;;;;;;;;15.33;15.33;;;;;7.29;92.71;100178.75;5075610;28;45578;-68
2021/12/31 08:00:12;;;;;;;;;21.50;18.75;;;;;7.28;92.59;100187.50;5075765;28;45194;-68
2021/12/31 08:02:38;;;;;;;;;17.00;16.00;;;;;7.27;92.19;100186.63;5075825;28;45293;-68
2021/12/31 08:05:04;;;;;;;;;17.67;16.33;;;;;7.26;92.25;100190.16;5075604;28;45498;-67
2021/12/31 08:07:29;;;;;;;;;20.33;17.33;;;;;7.28;92.01;100190.13;5074747;27;46194;-68
2021/12/31 08:09:55;;;;;;;;;18.00;16.25;;;;;7.29;92.20;100195.38;5075495;28;45493;-68
2021/12/31 08:12:20;;;;;;;;;14.00;14.00;;;;;7.31;92.25;100200.59;5075307;28;45374;-68
2021/12/31 08:14:46;;;;;;;;;19.33;15.33;;;;;7.31;92.27;100201.47;5075597;28;45412;-68
2021/12/31 08:17:11;;;;;;;;;18.00;17.00;;;;;7.31;92.31;100204.09;5075076;28;46149;-68
2021/12/31 08:19:37;;;;;;;;;12.67;12.67;;;;;7.33;92.26;100204.97;5075868;28;45458;-68
2021/12/31 08:22:02;;;;;;;;;21.00;19.67;;;;;7.34;92.03;100208.44;5074706;28;45888;-68
2021/12/31 08:24:28;;;;;;;;;19.67;17.00;;;;;7.37;92.26;100215.41;5075478;27;45333;-68
2021/12/31 08:26:53;;;;;;;;;16.50;16.00;;;;;7.39;91.62;100211.88;5075461;28;46285;-69
2021/12/31 08:29:18;;;;;;;;;19.25;17.50;;;;;7.40;91.84;100216.22;5075152;28;45175;-68
2021/12/31 08:31:44;;;;;;;;;16.00;16.00;;;;;7.42;91.82;100222.34;5075147;28;45147;-68
2021/12/31 08:34:11;;;;;;;;;19.75;15.50;;;;;7.45;91.62;100218.81;5075115;28;45325;-68
2021/12/31 08:36:37;;;;;;;;;22.00;21.33;;;;;7.48;91.54;100221.44;5074415;28;45361;-68
2021/12/31 08:39:04;;;;;;;;;14.75;12.50;;;;;7.50;91.61;100215.28;5075409;28;45225;-69
2021/12/31 08:41:30;;;;;;;;;16.33;14.33;;;;;7.54;91.67;100218.75;5074958;28;45396;-68
2021/12/31 08:43:56;;;;;;;;;20.67;18.33;;;;;7.57;91.66;100218.69;5074623;28;45364;-68
2021/12/31 08:46:21;;;;;;;;;19.00;17.33;;;;;7.59;91.70;100230.03;5074690;28;46109;-68
2021/12/31 08:48:47;;;;;;;;;23.67;23.00;;;;;7.62;91.58;100224.78;5074868;28;45336;-68
2021/12/31 08:51:12;;;;;;;;;21.67;20.00;;;;;7.64;91.63;100223.00;5074543;28;45314;-68
2021/12/31 08:53:37;;;;;;;;;20.50;18.50;;;;;7.66;91.29;100226.47;5074666;28;45577;-68
2021/12/31 08:56:03;;;;;;;;;20.00;18.33;;;;;7.65;91.29;100222.13;5074593;28;45501;-69
2021/12/31 08:58:28;;;;;;;;;22.00;22.00;;;;;7.69;91.08;100229.94;5074427;28;45338;-68
2021/12/31 09:00:54;;;;;;;;;17.67;17.33;;;;;7.72;91.09;100229.91;5074377;28;45352;-69
2021/12/31 09:03:19;;;;;;;;;17.67;15.67;;;;;7.76;91.40;100229.88;5074630;28;45375;-69
2021/12/31 09:05:45;;;;;;;;;17.67;17.33;;;;;7.79;91.31;100228.09;5077561;28;45344;-68
2021/12/31 09:08:12;;;;;;;;;23.00;18.67;;;;;7.86;91.41;100242.91;5077931;28;45214;-69
2021/12/31 09:10:38;;;;;;;;;20.00;18.00;;;;;7.92;91.33;100236.69;5078017;28;45328;-68
2021/12/31 09:13:03;;;;;;;;;23.33;19.33;;;;;7.95;91.26;100240.16;5077757;28;45510;-68
2021/12/31 09:15:28;;;;;;;;;22.33;17.33;;;;;8.01;91.16;100240.09;5077769;28;45404;-68
2021/12/31 09:17:55;;;;;;;;;22.67;19.67;;;;;8.04;91.28;100240.03;5077985;28;45441;-70
2021/12/31 09:20:21;;;;;;;;;12.33;10.00;;;;;8.10;90.98;100233.84;5078107;28;45461;-68
2021/12/31 09:22:47;;;;;;;;;16.25;12.25;;;;;8.16;91.00;100251.28;5077388;28;45524;-69
2021/12/31 09:25:14;;;;;;;;;24.00;16.00;;;;;8.21;91.18;100252.13;5077797;28;45452;-68
2021/12/31 09:27:39;;;;;;;;;19.00;17.00;;;;;8.26;91.07;100240.63;5077924;28;45177;-68
2021/12/31 09:30:05;;;;;;;;;19.50;18.50;;;;;8.31;90.86;100240.59;5077608;28;45323;-68
2021/12/31 09:32:31;;;;;;;;;16.75;16.25;;;;;8.35;90.75;100251.09;5077882;28;45353;-68
2021/12/31 09:34:56;;;;;;;;;14.00;12.00;;;;;8.42;90.86;100258.88;5077115;27;46013;-69
2021/12/31 09:37:21;;;;;;;;;20.25;18.00;;;;;8.48;90.97;100267.56;5076653;28;45395;-69
2021/12/31 09:39:47;;;;;;;;;17.75;14.50;;;;;8.55;90.73;100269.19;5077699;28;45354;-68
2021/12/31 09:42:13;;;;;;;;;16.75;15.75;;;;;8.62;90.58;100262.97;5077277;28;45545;-69
2021/12/31 09:44:39;;;;;;;;;18.00;14.00;;;;;8.68;90.30;100260.25;5077579;28;45463;-68
2021/12/31 09:47:10;;;;;;;;;11.00;11.00;;;;;8.75;90.48;100272.41;5077394;27;45466;-71
2021/12/31 09:49:39;;;;;;;;;20.75;18.75;;;;;8.84;90.42;100266.16;5077571;27;45489;-69
2021/12/31 09:52:10;;;;;;;;;19.00;18.00;;;;;8.93;90.27;100263.38;5076956;28;45534;-69
2021/12/31 09:54:42;;;;;;;;;15.50;13.75;;;;;9.03;90.03;100264.13;5076959;28;46525;-69
2021/12/31 09:57:16;;;;;;;;;17.00;15.75;;;;;9.10;89.88;100265.75;5076945;28;45531;-69
2021/12/31 09:59:41;;;;;;;;;13.50;12.25;;;;;9.18;89.76;100266.53;5077301;28;45409;-69
2021/12/31 10:02:09;;;;;;;;;12.00;11.00;;;;;9.27;89.62;100268.13;5077062;28;45436;-69
2021/12/31 10:04:49;;;;;;;;;14.50;12.25;;;;;9.34;89.38;100272.41;5077100;28;47501;-68
2021/12/31 10:07:20;;;;;;;;;20.50;20.00;;;;;9.39;89.61;100268.78;5076688;28;45510;-69
2021/12/31 10:10:05;;;;;;;;;17.00;14.25;;;;;9.48;89.60;100262.50;5077282;28;45277;-68
2021/12/31 10:12:58;;;;;;;;;15.00;14.50;;;;;9.56;89.46;100259.72;5077152;28;45351;-68
2021/12/31 10:15:25;;;;;;;;;15.25;15.25;;;;;9.60;89.01;100254.38;5075885;28;46212;-68
2021/12/31 10:17:52;;;;;;;;;16.50;16.25;;;;;9.66;89.10;100246.38;5076920;28;45388;-67
2021/12/31 10:20:18;;;;;;;;;22.00;22.00;;;;;9.72;88.90;100258.53;5076730;28;45371;-68
2021/12/31 10:22:45;;;;;;;;;19.50;17.25;;;;;9.78;88.26;100259.31;5076285;28;45545;-68
2021/12/31 10:25:18;;;;;;;;;18.00;15.00;;;;;9.83;88.07;100261.00;5075958;28;45550;-68
2021/12/31 10:27:44;;;;;;;;;17.50;15.00;;;;;9.89;87.90;100256.47;5077091;28;45520;-67
2021/12/31 10:30:09;;;;;;;;;23.50;17.00;;;;;9.96;87.92;100266.00;5071710;28;45328;-67
2021/12/31 10:32:40;;;;;;;;;17.75;16.75;;;;;10.01;87.49;100261.50;5067374;28;45422;-68
2021/12/31 10:35:09;;;;;;;;;16.25;15.50;;;;;10.10;87.25;100252.53;5076171;28;45668;-68
2021/12/31 10:37:41;;;;;;;;;15.00;12.75;;;;;10.17;87.07;100248.91;5076212;28;45415;-67
2021/12/31 10:40:07;;;;;;;;;10.50;9.00;;;;;10.24;86.80;100242.63;5075278;28;45449;-67
2021/12/31 10:42:33;;;;;;;;;11.50;9.75;;;;;10.31;86.11;100244.25;5076660;28;45417;-67
2021/12/31 10:45:02;;;;;;;;;10.75;10.25;;;;;10.37;85.51;100249.41;5076588;28;46115;-67
2021/12/31 10:47:28;;;;;;;;;8.50;5.50;;;;;10.42;85.64;100244.00;5074917;28;45554;-68
2021/12/31 10:50:00;;;;;;;;;12.75;12.75;;;;;10.47;85.48;100245.66;5075198;28;45262;-68
2021/12/31 10:52:36;;;;;;;;;15.00;13.00;;;;;10.53;85.18;100244.66;5076249;28;45356;-68
2021/12/31 10:55:24;;;;;;;;;13.25;10.50;;;;;10.58;84.47;100250.66;5076367;28;46322;-68
2021/12/31 10:57:59;;;;;;;;;9.00;9.00;;;;;10.63;84.23;100243.53;5076334;28;45294;-67
2021/12/31 11:00:27;;;;;;;;;10.75;9.00;;;;;10.68;83.69;100243.44;5076590;28;45371;-67
2021/12/31 11:02:53;;;;;;;;;3.25;2.00;;;;;10.70;83.91;100239.88;5076229;27;45431;-68
2021/12/31 11:05:21;;;;;;;;;11.50;10.00;;;;;10.75;83.85;100232.69;5075816;28;45666;-68
2021/12/31 11:07:47;;;;;;;;;14.80;14.80;;;;;10.79;83.93;100225.59;5075873;28;45554;-68
2021/12/31 11:10:14;;;;;;;;;13.50;13.00;;;;;10.83;83.60;100220.22;5076278;28;45412;-68
2021/12/31 11:12:46;;;;;;;;;13.50;12.50;;;;;10.89;83.90;100228.91;5076015;27;45525;-68
2021/12/31 11:15:13;;;;;;;;;21.25;17.75;;;;;10.93;84.01;100225.25;5075889;28;45455;-68
2021/12/31 11:17:39;;;;;;;;;17.25;16.75;;;;;10.97;83.91;100224.28;5075920;28;45396;-67